Time;durP1;ratioP1;P1;durP2;ratioP2;P2;SDS_P1;SDS_P2;PMS_P1;PMS_P2;Temp;Humidity;BMP_temperature;BMP_pressure;BME280_temperature;BME280_humidity;BME280_pressure;Samples;Min_cycle;Max_cycle;Signal;HPM_P1;HPM_P2
2023/08/20 00:02:08;;;;;;;1.85;1.20;;;;;;;23.65;86.67;101349.03;5031497;28;20076;-69
2023/08/20 00:04:35;;;;;;;3.38;1.38;;;;;;;23.57;86.79;101347.63;5020754;28;20443;-69
2023/08/20 00:07:02;;;;;;;1.63;1.08;;;;;;;23.55;86.47;101347.28;5019412;28;20056;-69
2023/08/20 00:09:27;;;;;;;2.13;1.30;;;;;;;23.47;86.55;101359.63;5031090;28;20049;-69
2023/08/20 00:11:53;;;;;;;3.22;1.13;;;;;;;23.44;87.27;101355.75;5023131;28;20057;-69
2023/08/20 00:14:18;;;;;;;1.58;0.93;;;;;;;23.49;86.77;101358.00;5037889;28;20082;-69
2023/08/20 00:16:44;;;;;;;2.20;1.13;;;;;;;23.39;87.06;101361.75;5036587;28;20033;-69
2023/08/20 00:19:13;;;;;;;1.40;1.08;;;;;;;23.37;87.31;101369.66;5011184;28;20017;-69
2023/08/20 00:21:43;;;;;;;6.28;1.00;;;;;;;23.30;87.19;101365.06;5014123;28;20038;-69
2023/08/20 00:24:09;;;;;;;2.53;1.08;;;;;;;23.27;87.63;101378.84;5038547;28;20417;-69
2023/08/20 00:26:35;;;;;;;8.50;1.40;;;;;;;23.26;87.47;101372.59;5014452;28;20112;-69
2023/08/20 00:29:00;;;;;;;1.90;1.15;;;;;;;23.26;87.50;101377.31;5026916;28;20117;-69
2023/08/20 00:31:26;;;;;;;5.70;1.35;;;;;;;23.21;87.29;101380.53;5011166;28;20097;-68
2023/08/20 00:33:51;;;;;;;4.20;1.30;;;;;;;23.15;87.86;101376.75;5029457;28;20087;-69
2023/08/20 00:36:17;;;;;;;3.15;1.30;;;;;;;23.14;87.77;101373.22;5025423;28;20031;-69
2023/08/20 00:38:42;;;;;;;4.40;1.50;;;;;;;23.16;87.68;101386.53;5013153;28;20034;-69
2023/08/20 00:41:07;;;;;;;2.47;1.20;;;;;;;23.14;87.42;101386.19;5024948;28;20049;-69
2023/08/20 00:43:33;;;;;;;3.65;1.70;;;;;;;23.12;87.11;101383.09;5035352;28;20128;-69
2023/08/20 00:45:59;;;;;;;3.72;1.40;;;;;;;23.04;87.92;101387.16;5034195;28;20509;-69
2023/08/20 00:48:25;;;;;;;4.10;1.40;;;;;;;22.91;88.46;101383.50;4995555;28;20033;-69
2023/08/20 00:50:51;;;;;;;1.42;0.95;;;;;;;22.85;88.21;101376.94;5014055;28;20401;-69
2023/08/20 00:53:17;;;;;;;2.10;1.13;;;;;;;22.60;88.84;101385.63;5001794;28;20049;-69
2023/08/20 00:55:43;;;;;;;3.67;1.50;;;;;;;22.54;89.56;101386.47;5031300;28;20022;-69
2023/08/20 00:58:10;;;;;;;4.25;1.00;;;;;;;22.48;89.43;101388.16;5025144;28;20125;-68
2023/08/20 01:00:35;;;;;;;2.83;1.40;;;;;;;22.37;89.80;101380.88;5022293;28;21411;-68
2023/08/20 01:03:02;;;;;;;4.78;1.50;;;;;;;22.33;90.04;101390.38;5010196;28;20445;-67
2023/08/20 01:05:33;;;;;;;2.90;1.33;;;;;;;22.30;90.19;101391.97;5020341;28;20673;-67
2023/08/20 01:08:12;;;;;;;2.85;1.15;;;;;;;22.33;89.86;101393.09;5027960;28;20032;-68
2023/08/20 01:10:56;;;;;;;4.82;1.20;;;;;;;22.29;89.94;101386.91;5025254;28;20106;-67
2023/08/20 01:13:21;;;;;;;1.75;1.27;;;;;;;22.20;89.90;101381.16;5011869;28;20144;-67
2023/08/20 01:15:47;;;;;;;3.00;1.30;;;;;;;22.21;90.26;101385.44;5013136;28;20183;-67
2023/08/20 01:18:12;;;;;;;4.18;1.52;;;;;;;22.24;89.50;101379.91;5022741;28;20111;-67
2023/08/20 01:20:47;;;;;;;2.53;1.02;;;;;;;22.11;89.81;101383.63;5040122;28;20034;-68
2023/08/20 01:23:28;;;;;;;1.30;1.00;;;;;;;21.98;89.83;101385.41;5019216;28;20383;-68
2023/08/20 01:26:29;;;;;;;6.38;1.25;;;;;;;21.97;90.24;101386.63;5011416;28;20032;-67
2023/08/20 01:28:55;;;;;;;3.50;1.17;;;;;;;21.91;90.26;101382.78;5005848;28;20045;-69
2023/08/20 01:31:23;;;;;;;3.72;1.40;;;;;;;21.96;90.14;101385.03;5011131;28;20099;-68
2023/08/20 01:33:48;;;;;;;2.92;1.45;;;;;;;21.90;89.81;101389.44;5018958;28;20128;-68
2023/08/20 01:36:14;;;;;;;1.60;1.15;;;;;;;21.90;90.23;101392.19;5013151;28;20124;-69
2023/08/20 01:38:40;;;;;;;3.25;1.17;;;;;;;21.86;90.46;101389.50;5021236;28;20112;-69
2023/08/20 01:41:06;;;;;;;4.00;1.00;;;;;;;21.83;89.88;101390.34;5032210;28;20839;-68
2023/08/20 01:43:32;;;;;;;1.65;1.17;;;;;;;21.76;89.43;101392.34;5028166;28;20575;-69
2023/08/20 01:45:57;;;;;;;5.25;1.02;;;;;;;21.68;89.97;101399.13;5012387;28;20026;-69
2023/08/20 01:48:23;;;;;;;1.67;1.20;;;;;;;21.53;90.31;101387.56;5010478;28;20033;-69
2023/08/20 01:50:48;;;;;;;6.15;1.48;;;;;;;21.46;91.14;101391.19;5034852;28;20052;-69
2023/08/20 01:53:14;;;;;;;2.05;1.25;;;;;;;21.46;91.26;101384.91;5030021;28;20079;-69
2023/08/20 01:55:41;;;;;;;2.80;1.88;;;;;;;21.46;91.19;101376.69;5009147;28;20513;-68
2023/08/20 01:58:07;;;;;;;3.50;1.38;;;;;;;21.52;90.99;101384.03;5006511;28;20026;-69
2023/08/20 02:00:33;;;;;;;1.95;1.17;;;;;;;21.63;90.33;101383.13;5033434;28;20030;-68
2023/08/20 02:02:59;;;;;;;5.28;1.80;;;;;;;21.56;89.99;101373.81;5005873;28;20033;-68
2023/08/20 02:05:25;;;;;;;3.05;1.25;;;;;;;21.58;89.86;101376.91;5027638;28;20474;-69
2023/08/20 02:07:50;;;;;;;2.55;1.13;;;;;;;21.60;89.63;101381.22;5013432;28;20478;-68
2023/08/20 02:10:16;;;;;;;1.75;1.08;;;;;;;21.50;89.44;101375.44;5013646;28;20017;-67
2023/08/20 02:12:41;;;;;;;2.00;1.20;;;;;;;21.45;89.88;101375.91;5022412;28;20056;-68
2023/08/20 02:15:08;;;;;;;6.18;1.85;;;;;;;21.46;89.90;101380.22;5030429;28;20037;-68
2023/08/20 02:17:35;;;;;;;2.05;1.30;;;;;;;21.33;90.12;101378.44;5023392;28;20049;-68
2023/08/20 02:20:01;;;;;;;1.95;1.27;;;;;;;21.31;90.48;101389.03;5042424;28;20037;-68
2023/08/20 02:22:29;;;;;;;2.60;1.30;;;;;;;21.26;90.66;101384.75;5033363;28;20037;-68
2023/08/20 02:24:54;;;;;;;3.20;1.20;;;;;;;21.24;90.36;101389.88;4995501;28;20017;-68
2023/08/20 02:27:20;;;;;;;2.45;1.45;;;;;;;21.19;90.25;101393.06;5029870;28;20033;-68
2023/08/20 02:29:48;;;;;;;4.85;2.10;;;;;;;21.06;91.35;101394.00;5026221;28;20053;-68
2023/08/20 02:32:14;;;;;;;2.30;1.08;;;;;;;21.06;91.61;101386.53;5010531;28;21113;-68
2023/08/20 02:34:40;;;;;;;3.78;1.73;;;;;;;21.11;90.95;101396.28;5029442;28;20124;-68
2023/08/20 02:37:05;;;;;;;2.80;1.33;;;;;;;21.02;92.28;101396.00;5016259;28;20045;-67
2023/08/20 02:39:31;;;;;;;2.53;1.50;;;;;;;21.00;91.86;101396.34;5014939;28;20080;-68
2023/08/20 02:41:57;;;;;;;2.55;1.20;;;;;;;21.07;91.84;101388.13;5009304;28;20058;-68
2023/08/20 02:44:22;;;;;;;6.32;1.92;;;;;;;21.11;91.47;101382.59;5023379;28;20025;-67
2023/08/20 02:46:48;;;;;;;2.70;1.90;;;;;;;21.11;90.90;101375.16;5034936;28;20045;-69
2023/08/20 02:49:14;;;;;;;6.28;1.60;;;;;;;21.04;90.36;101377.19;5016592;28;20051;-68
2023/08/20 02:51:43;;;;;;;2.83;1.60;;;;;;;20.82;92.30;101371.13;5016493;28;20033;-67
2023/08/20 02:54:08;;;;;;;4.13;1.65;;;;;;;20.88;93.08;101374.97;5019084;28;20025;-68
2023/08/20 02:56:34;;;;;;;7.15;2.15;;;;;;;20.97;92.13;101374.47;5032857;28;20029;-68
2023/08/20 02:59:02;;;;;;;4.57;2.35;;;;;;;20.98;91.68;101371.34;5027451;28;20041;-67
2023/08/20 03:01:27;;;;;;;3.75;1.63;;;;;;;21.00;91.25;101374.44;5026742;28;20033;-68
2023/08/20 03:03:54;;;;;;;1.95;1.35;;;;;;;20.97;90.84;101377.22;5019312;28;20028;-68
2023/08/20 03:06:20;;;;;;;3.35;2.00;;;;;;;20.98;90.58;101382.28;5022701;28;20091;-68
2023/08/20 03:08:45;;;;;;;5.18;1.55;;;;;;;20.94;91.04;101381.56;5016128;28;20482;-68
2023/08/20 03:11:11;;;;;;;2.90;1.63;;;;;;;20.85;90.71;101384.00;5014483;28;20033;-67
2023/08/20 03:13:36;;;;;;;3.63;1.70;;;;;;;20.86;90.91;101390.25;5025350;28;20029;-68
2023/08/20 03:16:03;;;;;;;2.47;1.40;;;;;;;20.87;90.99;101387.09;5022923;28;20044;-66
2023/08/20 03:18:28;;;;;;;4.72;2.10;;;;;;;20.90;90.64;101389.06;5017197;28;20476;-67
2023/08/20 03:20:55;;;;;;;3.42;2.08;;;;;;;20.74;90.61;101383.34;5020363;28;20109;-67
2023/08/20 03:23:21;;;;;;;4.82;1.40;;;;;;;20.69;91.66;101392.00;5044513;28;20036;-67
2023/08/20 03:25:47;;;;;;;2.95;1.48;;;;;;;20.71;91.81;101394.31;5013249;28;20465;-67
2023/08/20 03:28:12;;;;;;;2.40;1.27;;;;;;;20.81;91.80;101398.94;5015756;28;20380;-68
2023/08/20 03:30:38;;;;;;;3.03;1.88;;;;;;;20.85;91.89;101400.44;5031654;28;20112;-67
2023/08/20 03:33:04;;;;;;;6.47;1.70;;;;;;;20.87;92.32;101400.81;5014496;28;20033;-67
2023/08/20 03:35:32;;;;;;;4.43;1.88;;;;;;;20.90;93.31;101408.22;5037218;28;20556;-67
2023/08/20 03:37:58;;;;;;;7.10;2.90;;;;;;;20.96;93.66;101405.81;5016243;28;20021;-67
2023/08/20 03:40:23;;;;;;;6.10;2.13;;;;;;;21.01;94.30;101405.38;5021736;28;20034;-67
2023/08/20 03:42:49;;;;;;;8.10;2.95;;;;;;;21.12;94.22;101403.31;5023199;28;20116;-67
2023/08/20 03:45:16;;;;;;;3.25;1.88;;;;;;;21.13;94.86;101407.63;5033637;28;20480;-68
2023/08/20 03:47:44;;;;;;;5.22;2.78;;;;;;;21.19;94.86;101412.25;5012633;28;20021;-69
2023/08/20 03:50:09;;;;;;;6.60;2.40;;;;;;;21.17;94.59;101419.31;5032355;28;20029;-67
2023/08/20 03:52:35;;;;;;;4.65;2.60;;;;;;;21.17;95.05;101419.31;5039322;28;20037;-67
2023/08/20 03:55:00;;;;;;;5.55;2.50;;;;;;;21.11;96.26;101427.22;5013278;28;20040;-67
2023/08/20 03:57:26;;;;;;;4.82;2.53;;;;;;;21.19;96.01;101425.97;5012157;28;20041;-66
2023/08/20 03:59:51;;;;;;;3.50;2.33;;;;;;;21.24;96.14;101427.44;5018872;28;20052;-68
2023/08/20 04:02:17;;;;;;;5.10;2.53;;;;;;;21.29;95.44;101427.78;5033690;28;20025;-69
2023/08/20 04:04:42;;;;;;;4.10;2.40;;;;;;;21.30;95.47;101434.84;5028840;28;20160;-66
2023/08/20 04:07:08;;;;;;;5.10;2.25;;;;;;;21.33;95.79;101434.00;5038159;28;20025;-67
2023/08/20 04:09:34;;;;;;;3.83;2.47;;;;;;;21.32;96.48;101439.91;5032419;28;20076;-67
2023/08/20 04:11:59;;;;;;;4.03;2.15;;;;;;;21.29;96.54;101443.47;5024482;28;20072;-67
2023/08/20 04:14:25;;;;;;;5.47;2.70;;;;;;;21.35;96.42;101439.09;5039836;28;20103;-67
2023/08/20 04:16:51;;;;;;;6.50;2.90;;;;;;;21.36;96.22;101452.38;5015611;28;20029;-68
2023/08/20 04:19:16;;;;;;;4.68;2.58;;;;;;;21.31;96.94;101444.59;5028096;28;20036;-67
2023/08/20 04:21:42;;;;;;;5.22;2.97;;;;;;;21.30;96.96;101445.00;5049188;22;20037;-62
2023/08/20 04:24:07;;;;;;;6.18;2.75;;;;;;;21.22;97.29;101444.31;5028988;28;20033;-63
2023/08/20 04:26:33;;;;;;;5.40;2.38;;;;;;;21.30;97.60;101445.00;5040374;28;20036;-65
2023/08/20 04:29:00;;;;;;;5.75;2.78;;;;;;;21.31;97.20;101449.31;5025386;28;20114;-64
2023/08/20 04:31:26;;;;;;;4.63;2.45;;;;;;;21.31;97.49;101447.34;5012638;28;20087;-63
2023/08/20 04:34:00;;;;;;;6.70;2.40;;;;;;;21.34;97.04;101438.31;5007253;28;20035;-63
2023/08/20 04:36:37;;;;;;;5.03;2.40;;;;;;;21.28;97.50;101445.44;5012590;28;20518;-61
2023/08/20 04:39:02;;;;;;;3.50;2.17;;;;;;;21.34;97.60;101443.78;5010528;28;20120;-65
2023/08/20 04:41:28;;;;;;;3.78;1.77;;;;;;;21.37;97.80;101453.94;5004518;28;20017;-62
2023/08/20 04:43:54;;;;;;;4.20;2.13;;;;;;;21.41;97.28;101449.19;5022535;28;20081;-62
2023/08/20 04:46:22;;;;;;;3.42;1.98;;;;;;;21.41;97.13;101451.16;5029145;28;20025;-61
2023/08/20 04:48:47;;;;;;;2.97;1.90;;;;;;;21.41;96.85;101448.41;5044938;28;20060;-64
2023/08/20 04:51:13;;;;;;;3.83;2.30;;;;;;;21.35;97.06;101458.28;5039128;28;20037;-63
2023/08/20 04:53:38;;;;;;;4.10;2.20;;;;;;;21.35;97.53;101452.81;5011245;28;20084;-64
2023/08/20 04:56:04;;;;;;;3.47;1.98;;;;;;;21.34;97.41;101443.78;5011430;28;20112;-64
2023/08/20 04:58:30;;;;;;;2.67;1.65;;;;;;;21.39;97.33;101457.03;5023301;28;20121;-63
2023/08/20 05:00:57;;;;;;;3.95;1.92;;;;;;;21.34;97.29;101454.75;5008486;28;20029;-63
2023/08/20 05:03:22;;;;;;;5.63;2.40;;;;;;;21.41;97.31;101457.41;5040697;28;20087;-62
2023/08/20 05:05:49;;;;;;;3.17;1.83;;;;;;;21.45;96.99;101471.84;5029497;28;20030;-63
2023/08/20 05:08:15;;;;;;;4.30;1.83;;;;;;;21.44;96.91;101459.34;5024506;28;20099;-64
2023/08/20 05:10:43;;;;;;;2.20;1.58;;;;;;;21.48;97.03;101451.88;5022497;28;20041;-59
2023/08/20 05:13:11;;;;;;;6.20;2.38;;;;;;;21.45;96.53;101458.16;5005456;28;20035;-62
2023/08/20 05:15:36;;;;;;;3.45;1.90;;;;;;;21.45;96.43;101452.66;5039078;28;20054;-63
2023/08/20 05:18:02;;;;;;;5.00;2.05;;;;;;;21.43;96.29;101451.50;4998114;28;20107;-63
2023/08/20 05:20:27;;;;;;;3.25;1.92;;;;;;;21.32;97.17;101448.91;5035609;28;20033;-64
2023/08/20 05:22:53;;;;;;;3.67;1.80;;;;;;;21.38;96.12;101447.28;5042742;28;20029;-63
2023/08/20 05:25:19;;;;;;;4.65;2.00;;;;;;;21.10;97.04;101452.28;5008044;28;20112;-61
2023/08/20 05:27:45;;;;;;;3.10;1.88;;;;;;;21.08;98.12;101452.66;5011046;28;20030;-64
2023/08/20 05:30:11;;;;;;;3.22;1.70;;;;;;;21.16;98.11;101465.13;5036627;28;20046;-63
2023/08/20 05:32:37;;;;;;;3.47;2.03;;;;;;;21.17;98.06;101463.94;5025654;28;20029;-62
2023/08/20 05:35:03;;;;;;;2.97;2.05;;;;;;;21.24;97.84;101463.88;5029047;28;20041;-61
2023/08/20 05:37:30;;;;;;;4.88;1.92;;;;;;;21.13;97.97;101451.47;5014014;28;20022;-63
2023/08/20 05:39:56;;;;;;;4.10;2.28;;;;;;;21.19;98.52;101467.06;5023018;28;20041;-64
2023/08/20 05:42:21;;;;;;;3.15;1.73;;;;;;;21.03;98.87;101438.63;5016156;28;20130;-62
2023/08/20 05:44:53;;;;;;;;;;;;;;;21.07;99.37;101423.72;5034800;28;20083;-63
2023/08/20 05:47:23;;;;;;;3.72;1.65;;;;;;;21.14;99.05;101415.44;5035459;28;19928;-63
2023/08/20 05:49:49;;;;;;;4.72;2.40;;;;;;;20.86;99.75;101407.47;5043358;28;20045;-63
2023/08/20 05:52:14;;;;;;;4.07;2.05;;;;;;;20.85;100.00;101411.38;5031088;28;20025;-63
2023/08/20 05:54:42;;;;;;;5.45;2.30;;;;;;;20.86;100.00;101401.22;5045726;28;20060;-62
2023/08/20 05:57:07;;;;;;;4.80;2.53;;;;;;;21.00;99.14;101412.78;5017159;28;20081;-60
2023/08/20 05:59:33;;;;;;;5.60;2.53;;;;;;;21.05;99.67;101431.56;5037856;28;20034;-63
2023/08/20 06:02:01;;;;;;;11.55;5.43;;;;;;;21.21;98.48;101434.53;5004182;28;20124;-64
2023/08/20 06:04:26;;;;;;;19.50;5.95;;;;;;;21.26;98.76;101453.28;5020844;28;20670;-60
2023/08/20 06:06:52;;;;;;;10.82;4.28;;;;;;;21.39;98.50;101451.56;5027407;28;20047;-62
2023/08/20 06:09:17;;;;;;;10.52;4.75;;;;;;;21.40;98.39;101444.91;5029394;28;20033;-63
2023/08/20 06:11:43;;;;;;;11.73;5.25;;;;;;;21.46;98.56;101451.50;5030815;28;20412;-64
2023/08/20 06:14:08;;;;;;;13.90;5.55;;;;;;;21.50;98.50;101445.97;5023318;28;20029;-61
2023/08/20 06:16:34;;;;;;;14.73;5.10;;;;;;;21.55;98.05;101454.50;5029570;28;20034;-61
2023/08/20 06:18:59;;;;;;;18.23;6.82;;;;;;;21.65;98.06;101466.53;5022517;28;20121;-61
2023/08/20 06:21:25;;;;;;;21.58;8.00;;;;;;;21.69;97.60;101464.53;5014946;28;20065;-60
2023/08/20 06:23:50;;;;;;;22.80;7.72;;;;;;;21.72;97.19;101462.94;5021236;28;20027;-63
2023/08/20 06:26:16;;;;;;;20.13;7.90;;;;;;;21.64;96.56;101456.75;5026180;28;20059;-63
2023/08/20 06:28:41;;;;;;;22.35;8.85;;;;;;;21.58;97.20;101460.38;5024194;28;20026;-65
2023/08/20 06:31:07;;;;;;;20.55;8.25;;;;;;;21.31;98.24;101454.81;5018809;28;20029;-61
2023/08/20 06:33:32;;;;;;;27.23;8.40;;;;;;;21.53;97.17;101459.63;5027977;28;20040;-61
2023/08/20 06:35:58;;;;;;;24.58;8.45;;;;;;;21.68;97.17;101464.97;5021105;28;20022;-60
2023/08/20 06:38:23;;;;;;;20.17;7.57;;;;;;;21.62;96.71;101469.34;5016092;28;20041;-62
2023/08/20 06:40:50;;;;;;;16.55;7.10;;;;;;;21.31;97.34;101471.25;5028361;28;20674;-61
2023/08/20 06:43:15;;;;;;;19.60;7.85;;;;;;;21.43;97.60;101482.44;5009378;28;20423;-64
2023/08/20 06:45:41;;;;;;;23.50;6.60;;;;;;;21.56;98.17;101482.72;5020743;28;20031;-60
2023/08/20 06:48:06;;;;;;;17.50;6.78;;;;;;;21.70;97.97;101473.56;5004631;28;20545;-64
2023/08/20 06:50:32;;;;;;;20.40;6.90;;;;;;;21.79;96.25;101473.81;5007549;28;20043;-63
2023/08/20 06:52:57;;;;;;;20.65;7.70;;;;;;;21.62;97.98;101477.56;5025365;28;20539;-62
2023/08/20 06:55:23;;;;;;;22.90;7.95;;;;;;;21.69;97.17;101471.97;5018666;28;20389;-62
2023/08/20 06:57:48;;;;;;;23.73;7.45;;;;;;;21.71;97.36;101494.28;5014740;28;20057;-59
2023/08/20 07:00:18;;;;;;;18.67;6.57;;;;;;;21.71;97.20;101491.53;5005628;28;20084;-59
2023/08/20 07:02:44;;;;;;;18.80;5.80;;;;;;;21.81;97.58;101499.69;5032722;28;20037;-61
2023/08/20 07:05:10;;;;;;;16.15;6.75;;;;;;;21.70;97.21;101499.00;5025053;28;20029;-60
2023/08/20 07:07:35;;;;;;;17.10;6.85;;;;;;;21.76;96.46;101491.88;5023391;28;20123;-61
2023/08/20 07:10:03;;;;;;;17.00;6.45;;;;;;;21.68;97.28;101495.88;5030655;28;20021;-64
2023/08/20 07:12:28;;;;;;;17.50;6.55;;;;;;;21.61;98.33;101495.97;5024065;28;20029;-61
2023/08/20 07:14:54;;;;;;;18.30;7.55;;;;;;;21.70;98.32;101493.50;5034429;28;20044;-62
2023/08/20 07:17:19;;;;;;;18.27;6.65;;;;;;;21.75;98.31;101478.56;5028577;28;20034;-63
2023/08/20 07:19:45;;;;;;;12.27;6.32;;;;;;;21.58;99.62;101483.09;5019562;28;20084;-63
2023/08/20 07:22:10;;;;;;;13.27;6.13;;;;;;;21.88;99.46;101485.09;5024385;28;20044;-64
2023/08/20 07:24:36;;;;;;;17.27;6.03;;;;;;;22.08;98.47;101491.50;5027053;28;20033;-61
2023/08/20 07:27:03;;;;;;;8.00;4.28;;;;;;;22.25;98.25;101491.25;5024660;28;20034;-60
2023/08/20 07:29:30;;;;;;;9.40;3.50;;;;;;;22.47;97.47;101499.97;5027075;28;20041;-61
2023/08/20 07:31:56;;;;;;;7.25;3.50;;;;;;;22.59;96.56;101493.91;5018423;28;20505;-62
2023/08/20 07:34:21;;;;;;;9.05;3.55;;;;;;;22.57;95.77;101496.28;5029479;28;20033;-62
2023/08/20 07:36:47;;;;;;;7.78;3.92;;;;;;;22.56;95.26;101500.22;5022402;28;20105;-62
2023/08/20 07:39:14;;;;;;;5.97;3.33;;;;;;;22.65;94.66;101505.22;5022825;28;20126;-61
2023/08/20 07:41:40;;;;;;;14.15;4.32;;;;;;;22.42;95.16;101505.91;5027511;28;20033;-62
2023/08/20 07:44:06;;;;;;;5.72;2.72;;;;;;;22.62;95.04;101511.53;5009915;28;20037;-62
2023/08/20 07:46:31;;;;;;;5.80;2.47;;;;;;;22.74;94.34;101506.25;5012117;28;20038;-62
2023/08/20 07:48:57;;;;;;;5.03;2.38;;;;;;;22.72;93.62;101513.34;5020792;28;20029;-62
2023/08/20 07:51:22;;;;;;;3.72;1.90;;;;;;;22.79;93.77;101515.97;5031130;28;20036;-62
2023/08/20 07:53:48;;;;;;;4.35;2.40;;;;;;;22.88;94.05;101521.75;5026290;28;20468;-62
2023/08/20 07:56:13;;;;;;;3.55;2.10;;;;;;;22.94;93.59;101522.78;5026725;28;20091;-62
2023/08/20 07:58:39;;;;;;;4.10;2.03;;;;;;;22.85;92.28;101517.06;5027388;28;20025;-62
2023/08/20 08:01:04;;;;;;;3.60;2.20;;;;;;;22.52;93.32;101515.19;5025098;28;20037;-61
2023/08/20 08:03:30;;;;;;;4.40;2.20;;;;;;;22.47;94.23;101513.72;5029281;28;20535;-62
2023/08/20 08:05:56;;;;;;;3.05;2.05;;;;;;;22.79;94.50;101515.97;5024750;28;20028;-62
2023/08/20 08:08:21;;;;;;;3.95;2.15;;;;;;;23.20;94.35;101519.22;5030242;28;20495;-62
2023/08/20 08:10:47;;;;;;;7.00;3.03;;;;;;;23.32;91.16;101518.66;5031362;28;20502;-62
2023/08/20 08:13:15;;;;;;;5.90;2.38;;;;;;;22.89;91.51;101526.81;5026400;28;20037;-62
2023/08/20 08:15:41;;;;;;;2.63;1.77;;;;;;;23.47;92.57;101516.41;5027124;28;20032;-62
2023/08/20 08:18:07;;;;;;;3.05;1.65;;;;;;;24.07;92.14;101533.31;5029040;28;20233;-62
2023/08/20 08:20:33;;;;;;;2.67;1.60;;;;;;;24.56;89.93;101525.94;5029608;28;20075;-62
2023/08/20 08:22:58;;;;;;;7.18;2.20;;;;;;;24.96;87.21;101529.31;5019203;28;20041;-62
2023/08/20 08:25:24;;;;;;;2.90;1.52;;;;;;;25.32;85.08;101529.19;5030925;28;20077;-62
2023/08/20 08:27:49;;;;;;;2.00;1.23;;;;;;;25.59;83.06;101527.66;5030371;28;20030;-62
2023/08/20 08:30:15;;;;;;;4.80;1.70;;;;;;;25.86;81.04;101535.63;5027377;28;20499;-62
2023/08/20 08:32:41;;;;;;;5.60;1.73;;;;;;;26.07;79.25;101539.78;5028538;28;20068;-62
2023/08/20 08:35:07;;;;;;;2.75;1.65;;;;;;;26.21;78.51;101537.34;5030273;28;20113;-62
2023/08/20 08:37:33;;;;;;;5.50;1.42;;;;;;;26.48;78.21;101532.16;5024930;28;20053;-62
2023/08/20 08:39:58;;;;;;;4.72;1.52;;;;;;;26.55;76.63;101536.72;4996390;28;20025;-62
2023/08/20 08:42:25;;;;;;;4.35;1.13;;;;;;;26.64;76.55;101543.13;5030176;28;20060;-62
2023/08/20 08:44:50;;;;;;;1.95;1.40;;;;;;;26.89;75.49;101547.13;5025472;28;20435;-62
2023/08/20 08:47:18;;;;;;;2.00;1.20;;;;;;;26.83;73.04;101546.13;5025457;28;20037;-62
2023/08/20 08:49:46;;;;;;;2.63;0.88;;;;;;;26.87;71.57;101542.00;5030272;28;20392;-62
2023/08/20 08:52:12;;;;;;;0.85;0.75;;;;;;;27.12;70.55;101541.22;5024791;28;20083;-62
2023/08/20 08:54:38;;;;;;;3.33;1.08;;;;;;;27.37;70.64;101539.16;5028651;28;20072;-62
2023/08/20 08:57:05;;;;;;;4.05;1.02;;;;;;;27.60;69.20;101547.03;5030181;28;20079;-62
2023/08/20 08:59:31;;;;;;;3.97;0.90;;;;;;;27.71;69.29;101552.19;5030596;28;20033;-62
2023/08/20 09:01:57;;;;;;;1.85;1.10;;;;;;;27.95;68.28;101553.28;5021784;28;20585;-62
2023/08/20 09:04:25;;;;;;;2.60;0.90;;;;;;;28.19;66.87;101564.69;5031086;28;20041;-62
2023/08/20 09:06:55;;;;;;;3.00;0.75;;;;;;;28.18;66.71;101554.84;5014819;28;20511;-62
2023/08/20 09:09:21;;;;;;;1.98;1.00;;;;;;;28.39;66.04;101554.78;5009128;28;20032;-63
2023/08/20 09:11:48;;;;;;;2.03;1.02;;;;;;;28.33;65.45;101556.63;5016739;28;20053;-62
2023/08/20 09:14:30;;;;;;;3.08;1.38;;;;;;;28.36;65.62;101554.91;5012000;28;20037;-62
2023/08/20 09:17:00;;;;;;;4.45;1.15;;;;;;;28.46;65.53;101557.28;5029739;28;20299;-61
2023/08/20 09:19:30;;;;;;;1.98;1.10;;;;;;;28.44;64.99;101559.72;5024773;28;20037;-62
2023/08/20 09:21:58;;;;;;;2.00;0.67;;;;;;;28.40;65.02;101564.66;5025328;28;20118;-62
2023/08/20 09:25:00;;;;;;;1.90;0.60;;;;;;;28.50;64.16;101566.22;5030071;28;20040;-62
2023/08/20 09:27:26;;;;;;;1.23;0.75;;;;;;;28.58;62.65;101561.22;4971662;28;20046;-62
2023/08/20 09:29:54;;;;;;;1.10;0.60;;;;;;;28.83;61.79;101558.22;5028437;28;20044;-62
2023/08/20 09:32:26;;;;;;;1.75;0.70;;;;;;;28.88;62.07;101556.84;5029217;28;20033;-62
2023/08/20 09:34:55;;;;;;;1.88;0.73;;;;;;;29.08;62.36;101560.72;5030188;28;20032;-62
2023/08/20 09:37:22;;;;;;;0.52;0.50;;;;;;;29.16;60.62;101559.22;5005875;28;20029;-63
2023/08/20 09:39:48;;;;;;;1.23;0.90;;;;;;;29.36;59.30;101567.13;5029290;28;20045;-62
2023/08/20 09:42:14;;;;;;;1.42;0.50;;;;;;;29.57;57.98;101562.66;5021541;28;20110;-62
2023/08/20 09:44:41;;;;;;;2.28;0.50;;;;;;;29.76;57.26;101564.97;5018244;28;20946;-62
2023/08/20 09:47:12;;;;;;;1.85;0.50;;;;;;;29.75;56.64;101555.09;5042837;28;20017;-62
2023/08/20 09:49:45;;;;;;;1.75;0.47;;;;;;;29.92;58.12;101555.53;5025698;28;20033;-62
2023/08/20 09:52:30;;;;;;;1.40;0.60;;;;;;;30.05;57.29;101562.47;5027759;28;20031;-62
2023/08/20 09:55:10;;;;;;;1.13;0.50;;;;;;;30.17;55.60;101557.94;5015781;28;20033;-62
2023/08/20 09:57:38;;;;;;;0.85;0.50;;;;;;;30.33;56.04;101557.63;5037847;28;20037;-62
2023/08/20 10:00:11;;;;;;;0.57;0.40;;;;;;;30.52;55.51;101561.09;5019142;28;20387;-62
2023/08/20 10:02:41;;;;;;;0.90;0.70;;;;;;;30.67;55.22;101553.59;5016022;28;20497;-62
2023/08/20 10:05:09;;;;;;;1.25;0.47;;;;;;;30.73;54.16;101557.28;5022725;28;20156;-63
2023/08/20 10:07:35;;;;;;;2.45;0.43;;;;;;;30.82;52.96;101560.00;5021217;28;20248;-62
2023/08/20 10:10:04;;;;;;;2.70;0.50;;;;;;;30.86;53.59;101553.06;5020868;28;20507;-62
2023/08/20 10:12:31;;;;;;;1.58;0.43;;;;;;;30.96;54.27;101545.41;5026790;28;20036;-62
2023/08/20 10:14:58;;;;;;;4.45;0.70;;;;;;;31.08;53.22;101545.19;5026766;28;20376;-62
2023/08/20 10:17:24;;;;;;;1.70;0.50;;;;;;;31.18;52.33;101542.34;5018573;28;20044;-62
2023/08/20 10:19:52;;;;;;;0.50;0.50;;;;;;;31.21;52.34;101549.72;5035607;28;20112;-62
2023/08/20 10:22:18;;;;;;;1.05;0.57;;;;;;;31.35;53.14;101538.63;5057364;22;20488;-69
2023/08/20 10:24:53;;;;;;;1.45;0.60;;;;;;;31.62;51.96;101544.00;5060127;28;20029;-68
2023/08/20 10:27:25;;;;;;;1.85;0.80;;;;;;;31.56;51.80;101536.78;5070007;28;20129;-68
2023/08/20 10:29:52;;;;;;;1.70;0.60;;;;;;;31.64;50.81;101538.72;5051417;28;20039;-69
2023/08/20 10:32:18;;;;;;;2.22;0.55;;;;;;;31.75;51.05;101535.34;5064530;28;20031;-68
2023/08/20 10:34:51;;;;;;;0.98;0.60;;;;;;;31.76;51.41;101534.91;5066951;28;20033;-70
2023/08/20 10:37:28;;;;;;;1.55;0.60;;;;;;;31.71;51.40;101529.19;5064292;28;20500;-68
2023/08/20 10:39:55;;;;;;;1.13;0.50;;;;;;;31.79;51.19;101525.56;5063551;28;20041;-69
2023/08/20 10:42:25;;;;;;;2.05;0.40;;;;;;;31.56;51.77;101528.41;5071629;28;20036;-69
2023/08/20 10:45:10;;;;;;;1.20;0.73;;;;;;;31.51;52.54;101529.09;5068122;28;20036;-69
2023/08/20 10:47:36;;;;;;;1.17;0.70;;;;;;;31.49;52.44;101526.78;5049874;28;20033;-68
2023/08/20 10:50:02;;;;;;;1.45;0.80;;;;;;;31.47;51.77;101534.09;5072655;28;20654;-68
2023/08/20 10:52:28;;;;;;;1.73;0.93;;;;;;;31.24;52.04;101527.28;5069074;28;20107;-69
2023/08/20 10:54:56;;;;;;;0.98;0.60;;;;;;;31.09;51.99;101537.59;5072079;28;20119;-68
2023/08/20 10:57:22;;;;;;;1.88;0.70;;;;;;;30.91;53.04;101523.81;5053115;28;20036;-69
2023/08/20 11:00:00;;;;;;;1.75;0.70;;;;;;;30.81;53.44;101522.28;5072011;28;20017;-69
2023/08/20 11:02:26;;;;;;;1.50;0.80;;;;;;;30.94;54.17;101522.84;5068869;28;20033;-68
2023/08/20 11:04:53;;;;;;;2.13;0.55;;;;;;;31.40;52.12;101526.84;5043529;28;20040;-69
2023/08/20 11:07:19;;;;;;;1.88;0.60;;;;;;;31.62;51.91;101524.50;5072700;28;20048;-70
2023/08/20 11:09:46;;;;;;;0.85;0.60;;;;;;;31.96;52.00;101528.66;5071753;28;21212;-66
2023/08/20 11:12:15;;;;;;;1.00;0.70;;;;;;;32.11;51.52;101525.88;5048760;28;20040;-69
2023/08/20 11:14:40;;;;;;;0.52;0.52;;;;;;;32.37;50.87;101513.59;5071926;28;20131;-69
2023/08/20 11:17:07;;;;;;;1.60;0.82;;;;;;;32.65;49.19;101528.78;5072615;28;20035;-69
2023/08/20 11:19:33;;;;;;;1.48;0.60;;;;;;;32.64;49.47;101532.81;5056283;28;20056;-69
2023/08/20 11:21:59;;;;;;;1.60;1.13;;;;;;;32.80;49.57;101528.69;5063681;28;20416;-69
2023/08/20 11:24:28;;;;;;;1.35;0.70;;;;;;;32.82;49.34;101532.56;5051575;28;20036;-68